createdAt,value
2023-05-03T00:01:39.284Z,99541.16
2023-05-03T00:04:06.243Z,99547.13
2023-05-03T00:06:32.918Z,99547.84
2023-05-03T00:09:00.632Z,99546.00
2023-05-03T00:11:28.493Z,99551.16
2023-05-03T00:13:55.088Z,99550.00
2023-05-03T00:16:21.775Z,99559.50
2023-05-03T00:18:49.309Z,99558.41
2023-05-03T00:21:17.007Z,99560.78
2023-05-03T00:23:43.597Z,99555.72
2023-05-03T00:26:11.261Z,99552.81
2023-05-03T00:28:37.865Z,99568.06
2023-05-03T00:31:09.547Z,99563.78
2023-05-03T00:33:37.331Z,99560.84
2023-05-03T00:36:11.252Z,99572.09
2023-05-03T00:38:39.362Z,99573.97
2023-05-03T00:41:06.968Z,99575.66
2023-05-03T00:43:36.321Z,99580.44
2023-05-03T00:46:15.890Z,99579.09
2023-05-03T00:48:45.312Z,99586.16
2023-05-03T00:51:14.880Z,99580.72
2023-05-03T00:53:44.773Z,99587.19
2023-05-03T00:56:12.173Z,99581.03
2023-05-03T00:58:40.631Z,99586.63
2023-05-03T01:01:07.868Z,99589.34
2023-05-03T01:03:39.729Z,99592.56
2023-05-03T01:06:25.278Z,99600.59
2023-05-03T01:09:19.540Z,99592.06
2023-05-03T01:12:04.223Z,99603.81
2023-05-03T01:14:47.610Z,99605.97
2023-05-03T01:17:15.659Z,99604.41
2023-05-03T01:19:51.452Z,99606.78
2023-05-03T01:22:26.466Z,99606.78
2023-05-03T01:25:07.722Z,99603.31
2023-05-03T01:27:34.531Z,99610.78
2023-05-03T01:30:01.366Z,99607.59
2023-05-03T01:32:37.722Z,99616.19
2023-05-03T01:35:18.113Z,99607.22
2023-05-03T01:37:45.099Z,99604.84
2023-05-03T01:40:16.996Z,99612.41
2023-05-03T01:42:43.987Z,99608.59
2023-05-03T01:45:13.240Z,99605.94
2023-05-03T01:47:39.853Z,99615.03
2023-05-03T01:50:06.558Z,99611.72
2023-05-03T01:52:33.714Z,99614.47
2023-05-03T01:55:00.416Z,99612.78
2023-05-03T01:57:26.999Z,99620.25
2023-05-03T01:59:54.585Z,99616.06
2023-05-03T02:02:21.201Z,99622.97
2023-05-03T02:04:48.440Z,99616.50
2023-05-03T02:07:15.101Z,99624.88
2023-05-03T02:09:41.744Z,99629.41
2023-05-03T02:12:09.455Z,99623.16
2023-05-03T02:14:36.066Z,99628.91
2023-05-03T02:17:03.321Z,99624.50
2023-05-03T02:19:30.174Z,99622.28
2023-05-03T02:21:57.102Z,99619.09
2023-05-03T02:24:24.873Z,99621.88
2023-05-03T02:26:52.569Z,99628.72
2023-05-03T02:29:19.158Z,99621.69
2023-05-03T02:31:45.821Z,99623.41
2023-05-03T02:34:12.620Z,99625.19
2023-05-03T02:36:39.454Z,99623.25
2023-05-03T02:39:07.358Z,99630.34
2023-05-03T02:41:33.995Z,99628.06
2023-05-03T02:44:01.082Z,99619.72
2023-05-03T02:46:27.794Z,99622.25
2023-05-03T02:48:54.513Z,99633.94
2023-05-03T02:51:21.243Z,99629.59
2023-05-03T02:53:48.228Z,99617.38
2023-05-03T02:56:14.823Z,99623.75
2023-05-03T02:58:41.436Z,99632.78
2023-05-03T03:01:09.249Z,99619.75
2023-05-03T03:03:36.530Z,99629.06
2023-05-03T03:06:03.719Z,99627.91
2023-05-03T03:08:30.413Z,99633.94
2023-05-03T03:10:57.033Z,99638.19
2023-05-03T03:13:24.046Z,99643.50
2023-05-03T03:15:52.028Z,99648.94
2023-05-03T03:18:19.740Z,99655.16
2023-05-03T03:20:47.684Z,99649.97
2023-05-03T03:23:14.658Z,99654.81
2023-05-03T03:25:42.148Z,99661.97
2023-05-03T03:28:08.817Z,99657.22
2023-05-03T03:30:35.442Z,99663.38
2023-05-03T03:33:02.140Z,99670.00
2023-05-03T03:35:29.117Z,99665.34
2023-05-03T03:37:55.799Z,99674.13
2023-05-03T03:40:22.452Z,99673.75
2023-05-03T03:42:50.266Z,99681.75
2023-05-03T03:45:18.228Z,99687.06
2023-05-03T03:47:45.983Z,99680.50
2023-05-03T03:50:13.919Z,99688.50
2023-05-03T03:52:40.701Z,99686.56
2023-05-03T03:55:07.673Z,99695.28
2023-05-03T03:57:34.316Z,99689.31
2023-05-03T04:00:01.312Z,99689.75
2023-05-03T04:02:28.286Z,99689.03
2023-05-03T04:04:55.655Z,99695.78
2023-05-03T04:07:22.316Z,99695.66
2023-05-03T04:09:48.994Z,99693.59
2023-05-03T04:12:17.280Z,99694.28
2023-05-03T04:14:43.929Z,99705.41
2023-05-03T04:17:12.060Z,99715.25
2023-05-03T04:19:39.990Z,99725.53
2023-05-03T04:22:08.259Z,99726.00
2023-05-03T04:24:35.868Z,99737.81
2023-05-03T04:27:05.822Z,99744.09
2023-05-03T04:29:32.452Z,99740.47
2023-05-03T04:32:01.261Z,99749.13
2023-05-03T04:34:30.272Z,99755.47
2023-05-03T04:36:57.102Z,99763.22
2023-05-03T04:39:24.154Z,99763.25
2023-05-03T04:41:50.746Z,99775.75
2023-05-03T04:44:18.948Z,99783.75
2023-05-03T04:46:48.751Z,99777.84
2023-05-03T04:49:17.846Z,99782.81
2023-05-03T04:51:45.675Z,99790.78
2023-05-03T04:54:12.276Z,99799.47
2023-05-03T04:56:38.900Z,99801.69
2023-05-03T04:59:05.682Z,99798.44
2023-05-03T05:01:32.872Z,99810.06
2023-05-03T05:04:00.598Z,99819.53
2023-05-03T05:06:29.084Z,99819.78
2023-05-03T05:08:57.383Z,99821.22
2023-05-03T05:11:24.145Z,99826.63
2023-05-03T05:13:50.813Z,99841.66
2023-05-03T05:16:17.797Z,99837.41
2023-05-03T05:18:45.673Z,99843.66
2023-05-03T05:21:15.583Z,99845.47
2023-05-03T05:23:42.318Z,99843.41
2023-05-03T05:26:08.930Z,99853.13
2023-05-03T05:28:36.114Z,99852.84
2023-05-03T05:31:02.728Z,99850.44
2023-05-03T05:33:29.385Z,99868.28
2023-05-03T05:35:56.151Z,99880.63
2023-05-03T05:38:22.789Z,99869.66
2023-05-03T05:40:49.501Z,99875.63
2023-05-03T05:43:16.124Z,99885.50
2023-05-03T05:45:42.728Z,99886.44
2023-05-03T05:48:10.768Z,99879.69
2023-05-03T05:50:38.779Z,99890.16
2023-05-03T05:53:06.722Z,99890.00
2023-05-03T05:55:33.329Z,99900.25
2023-05-03T05:58:01.062Z,99896.44
2023-05-03T06:00:27.674Z,99903.53
2023-05-03T06:02:54.488Z,99914.31
2023-05-03T06:05:21.643Z,99913.50
2023-05-03T06:07:48.928Z,99907.38
2023-05-03T06:10:16.051Z,99920.81
2023-05-03T06:12:42.689Z,99914.38
2023-05-03T06:15:09.780Z,99910.94
2023-05-03T06:17:36.560Z,99924.66
2023-05-03T06:20:04.885Z,99935.47
2023-05-03T06:22:31.878Z,99936.03
2023-05-03T06:24:59.787Z,99934.13
2023-05-03T06:27:26.463Z,99939.81
2023-05-03T06:29:54.399Z,99940.66
2023-05-03T06:32:21.904Z,99946.31
2023-05-03T06:34:49.853Z,99951.44
2023-05-03T06:37:17.418Z,99958.75
2023-05-03T06:39:44.057Z,99966.00
2023-05-03T06:42:10.865Z,99970.06
2023-05-03T06:44:37.462Z,99974.66
2023-05-03T06:47:04.266Z,99978.72
2023-05-03T06:49:31.614Z,99980.88
2023-05-03T06:51:58.301Z,99983.03
2023-05-03T06:54:24.936Z,99999.78
2023-05-03T06:56:51.567Z,100000.31
2023-05-03T06:59:19.649Z,99989.78
2023-05-03T07:01:47.100Z,99996.81
2023-05-03T07:04:14.720Z,99999.78
2023-05-03T07:06:55.344Z,100014.88
2023-05-03T07:09:35.446Z,100009.47
2023-05-03T07:12:08.755Z,100018.13
2023-05-03T07:14:35.703Z,100010.00
2023-05-03T07:17:02.506Z,100018.38
2023-05-03T07:19:30.173Z,100021.09
2023-05-03T07:21:56.874Z,100028.97
2023-05-03T07:24:25.787Z,100043.28
2023-05-03T07:26:54.798Z,100034.59
2023-05-03T07:29:21.643Z,100026.75
2023-05-03T07:31:51.412Z,100027.56
2023-05-03T07:34:19.486Z,100035.13
2023-05-03T07:36:46.121Z,100038.06
2023-05-03T07:39:12.724Z,100031.59
2023-05-03T07:41:39.526Z,100033.16
2023-05-03T07:44:07.261Z,100039.66
2023-05-03T07:46:35.233Z,100045.63
2023-05-03T07:49:05.370Z,100048.78
2023-05-03T07:51:39.001Z,100044.50
2023-05-03T07:54:07.563Z,100049.88
2023-05-03T07:56:34.311Z,100041.75
2023-05-03T07:59:09.317Z,100048.25
2023-05-03T08:01:36.760Z,100055.19
2023-05-03T08:04:04.867Z,100056.59
2023-05-03T08:06:32.844Z,100052.22
2023-05-03T08:09:00.874Z,100054.84
2023-05-03T08:11:30.216Z,100041.66
2023-05-03T08:13:57.081Z,100050.75
2023-05-03T08:16:25.272Z,100059.41
2023-05-03T08:18:53.328Z,100064.56
2023-05-03T08:21:21.416Z,100070.41
2023-05-03T08:23:49.816Z,100075.66
2023-05-03T08:26:17.364Z,100067.25
2023-05-03T08:28:45.186Z,100064.19
2023-05-03T08:31:12.125Z,100059.56
2023-05-03T08:33:38.756Z,100070.59
2023-05-03T08:36:06.043Z,100063.81
2023-05-03T08:38:34.160Z,100058.53
2023-05-03T08:41:08.787Z,100065.16
2023-05-03T08:43:40.477Z,100068.06
2023-05-03T08:46:12.393Z,100068.59
2023-05-03T08:48:39.498Z,100066.75
2023-05-03T08:51:10.104Z,100062.00
2023-05-03T08:53:36.996Z,100066.56
2023-05-03T08:56:08.647Z,100075.81
2023-05-03T08:58:38.148Z,100067.97
2023-05-03T09:01:06.545Z,100065.38
2023-05-03T09:03:37.691Z,100070.53
2023-05-03T09:06:20.499Z,100065.59
2023-05-03T09:08:47.182Z,100065.22
2023-05-03T09:11:30.979Z,100069.47
2023-05-03T09:14:14.010Z,100072.53
2023-05-03T09:16:42.660Z,100075.88
2023-05-03T09:19:11.810Z,100075.41
2023-05-03T09:21:41.217Z,100081.72
2023-05-03T09:24:21.599Z,100085.78
2023-05-03T09:26:52.359Z,100091.66
2023-05-03T09:29:34.395Z,100095.31
2023-05-03T09:32:03.148Z,100093.06
2023-05-03T09:34:29.922Z,100082.53
2023-05-03T09:36:56.640Z,100087.22
2023-05-03T09:39:23.503Z,100075.94
2023-05-03T09:41:51.861Z,100088.97
2023-05-03T09:44:19.932Z,100087.13
2023-05-03T09:47:07.343Z,100096.94
2023-05-03T09:49:36.942Z,100101.88
2023-05-03T09:52:03.919Z,100079.63
2023-05-03T09:54:36.107Z,100090.59
2023-05-03T09:57:04.902Z,100096.63
2023-05-03T09:59:32.890Z,100081.34
2023-05-03T10:02:03.250Z,100081.09
2023-05-03T10:04:40.824Z,100087.38
2023-05-03T10:07:13.330Z,100080.88
2023-05-03T10:09:44.410Z,100084.91
2023-05-03T10:12:13.260Z,100076.25
2023-05-03T10:14:42.644Z,100070.25
2023-05-03T10:17:45.627Z,100088.44
2023-05-03T10:20:29.159Z,100072.06
2023-05-03T10:23:04.882Z,100085.88
2023-05-03T10:25:32.926Z,100096.03
2023-05-03T10:28:03.820Z,100080.88
2023-05-03T10:30:34.974Z,100091.16
2023-05-03T10:33:13.843Z,100097.72
2023-05-03T10:35:42.230Z,100088.06
2023-05-03T10:38:22.130Z,100094.84
2023-05-03T10:40:48.986Z,100094.56
2023-05-03T10:43:33.902Z,100089.63
2023-05-03T10:46:06.007Z,100092.66
2023-05-03T10:48:33.824Z,100089.84
2023-05-03T10:51:37.461Z,100090.03
2023-05-03T10:54:04.399Z,100094.22
2023-05-03T10:56:31.040Z,100086.88
2023-05-03T10:58:59.876Z,100080.44
2023-05-03T11:01:28.037Z,100092.31
2023-05-03T11:04:05.275Z,100097.69
2023-05-03T11:06:37.254Z,100081.97
2023-05-03T11:09:06.770Z,100082.66
2023-05-03T11:11:37.069Z,100098.09
2023-05-03T11:14:04.043Z,100108.06
2023-05-03T11:16:31.354Z,100112.25
2023-05-03T11:18:59.914Z,100104.09
2023-05-03T11:21:26.646Z,100100.94
2023-05-03T11:23:54.670Z,100096.38
2023-05-03T11:26:26.336Z,100099.03
2023-05-03T11:28:54.120Z,100101.97
2023-05-03T11:31:22.381Z,100104.22
2023-05-03T11:33:49.838Z,100110.69
2023-05-03T11:36:16.476Z,100113.47
2023-05-03T11:38:43.134Z,100132.72
2023-05-03T11:41:18.188Z,100125.09
2023-05-03T11:43:46.989Z,100128.72
2023-05-03T11:46:18.242Z,100118.88
2023-05-03T11:48:45.851Z,100120.19
2023-05-03T11:51:14.909Z,100132.44
2023-05-03T11:53:43.962Z,100110.72
2023-05-03T11:56:15.502Z,100117.53
2023-05-03T11:58:52.755Z,100114.63
2023-05-03T12:01:23.810Z,100120.66
2023-05-03T12:03:59.646Z,100115.97
2023-05-03T12:06:28.879Z,100125.31
2023-05-03T12:08:56.676Z,100111.56
2023-05-03T12:11:26.907Z,100129.47
2023-05-03T12:14:00.320Z,100126.78
2023-05-03T12:16:27.980Z,100116.28
2023-05-03T12:19:02.349Z,100130.25
2023-05-03T12:24:20.404Z,100127.00
2023-05-03T12:26:48.912Z,100124.34
2023-05-03T12:29:17.954Z,100142.88
2023-05-03T12:31:49.149Z,100144.66
2023-05-03T12:34:31.752Z,100135.59
2023-05-03T12:37:04.643Z,100123.13
2023-05-03T12:39:32.986Z,100126.78
2023-05-03T12:44:34.999Z,100144.69
2023-05-03T12:47:02.929Z,100129.38
2023-05-03T12:49:30.089Z,100135.66
2023-05-03T12:52:34.518Z,100138.44
2023-05-03T12:54:49.643Z,100127.06
2023-05-03T12:57:22.902Z,100125.53
2023-05-03T12:59:56.799Z,100129.38
2023-05-03T13:05:00.015Z,100134.00
2023-05-03T13:07:32.197Z,100124.44
2023-05-03T13:12:31.026Z,100119.00
2023-05-03T13:14:58.055Z,100114.06
2023-05-03T13:17:25.076Z,100128.69
2023-05-03T13:19:54.541Z,100132.00
2023-05-03T13:22:22.227Z,100128.78
2023-05-03T13:24:49.449Z,100132.91
2023-05-03T13:27:17.733Z,100121.34
2023-05-03T13:29:46.161Z,100134.63
2023-05-03T13:32:14.406Z,100125.84
2023-05-03T13:34:41.017Z,100124.59
2023-05-03T13:37:08.756Z,100122.66
2023-05-03T13:39:36.739Z,100135.03
2023-05-03T13:42:03.507Z,100135.84
2023-05-03T13:44:30.243Z,100124.75
2023-05-03T13:46:57.194Z,100117.81
2023-05-03T13:49:25.158Z,100126.72
2023-05-03T13:51:51.764Z,100135.31
2023-05-03T13:54:19.733Z,100145.38
2023-05-03T13:56:46.389Z,100137.00
2023-05-03T13:59:16.379Z,100136.72
2023-05-03T14:01:43.542Z,100131.19
2023-05-03T14:04:11.598Z,100145.91
2023-05-03T14:06:41.243Z,100144.59
2023-05-03T14:09:08.931Z,100148.19
2023-05-03T14:11:35.798Z,100135.19
2023-05-03T14:14:03.264Z,100137.25
2023-05-03T14:16:40.856Z,100136.28
2023-05-03T14:19:11.844Z,100149.59
2023-05-03T14:21:38.806Z,100148.66
2023-05-03T14:24:07.762Z,100133.25
2023-05-03T14:26:34.444Z,100157.41
2023-05-03T14:29:01.559Z,100151.28
2023-05-03T14:31:29.809Z,100143.13
2023-05-03T14:33:58.226Z,100146.59
2023-05-03T14:36:34.744Z,100147.41
2023-05-03T14:39:04.685Z,100146.34
2023-05-03T14:41:33.321Z,100151.56
2023-05-03T14:44:00.213Z,100143.38
2023-05-03T14:46:27.040Z,100141.13
2023-05-03T14:48:53.694Z,100146.59
2023-05-03T14:51:21.682Z,100139.53
2023-05-03T14:53:49.703Z,100146.41
2023-05-03T14:56:16.332Z,100130.66
2023-05-03T14:58:44.256Z,100148.59
2023-05-03T15:01:20.473Z,100166.28
2023-05-03T15:03:47.754Z,100175.06
2023-05-03T15:06:14.587Z,100166.97
2023-05-03T15:08:41.369Z,100161.25
2023-05-03T15:11:07.988Z,100163.50
2023-05-03T15:13:35.309Z,100172.25
2023-05-03T15:16:02.252Z,100172.31
2023-05-03T15:18:28.944Z,100172.03
2023-05-03T15:20:56.343Z,100174.16
2023-05-03T15:23:23.229Z,100171.56
2023-05-03T15:25:49.833Z,100171.84
2023-05-03T15:28:16.693Z,100167.34
2023-05-03T15:30:43.296Z,100172.69
2023-05-03T15:33:12.101Z,100175.16
2023-05-03T15:35:40.362Z,100168.94
2023-05-03T15:38:07.874Z,100171.59
2023-05-03T15:40:34.559Z,100174.38
2023-05-03T15:43:01.759Z,100169.38
2023-05-03T15:45:28.524Z,100167.94
2023-05-03T15:47:58.496Z,100175.03
2023-05-03T15:50:25.254Z,100167.56
2023-05-03T15:52:51.879Z,100177.34
2023-05-03T15:55:20.740Z,100193.91
2023-05-03T15:57:47.382Z,100189.44
2023-05-03T16:00:18.176Z,100193.56
2023-05-03T16:02:44.824Z,100179.41
2023-05-03T16:05:12.087Z,100189.44
2023-05-03T16:07:38.838Z,100201.97
2023-05-03T16:10:06.523Z,100200.91
2023-05-03T16:12:33.386Z,100200.91
2023-05-03T16:15:00.161Z,100202.31
2023-05-03T16:17:27.043Z,100201.38
2023-05-03T16:19:53.762Z,100203.06
2023-05-03T16:22:20.392Z,100201.78
2023-05-03T16:24:47.321Z,100199.16
2023-05-03T16:27:14.102Z,100203.28
2023-05-03T16:29:40.859Z,100213.19
2023-05-03T16:32:09.946Z,100209.53
2023-05-03T16:34:37.987Z,100207.16
2023-05-03T16:37:04.807Z,100209.72
2023-05-03T16:39:33.484Z,100219.88
2023-05-03T16:42:00.114Z,100214.00
2023-05-03T16:44:26.886Z,100235.09
2023-05-03T16:46:53.579Z,100227.44
2023-05-03T16:49:20.469Z,100234.56
2023-05-03T16:51:48.571Z,100234.06
2023-05-03T16:54:16.831Z,100231.09
2023-05-03T16:56:45.780Z,100245.53
2023-05-03T16:59:12.429Z,100253.75
2023-05-03T17:01:39.286Z,100241.16
2023-05-03T17:04:07.992Z,100243.91
2023-05-03T17:06:34.706Z,100248.84
2023-05-03T17:09:01.493Z,100240.00
2023-05-03T17:11:29.576Z,100242.16
2023-05-03T17:13:56.454Z,100254.31
2023-05-03T17:16:23.492Z,100254.16
2023-05-03T17:18:50.355Z,100248.88
2023-05-03T17:21:18.737Z,100266.47
2023-05-03T17:23:46.221Z,100256.00
2023-05-03T17:26:13.216Z,100262.50
2023-05-03T17:28:40.621Z,100267.94
2023-05-03T17:31:07.590Z,100265.50
2023-05-03T17:33:36.425Z,100277.63
2023-05-03T17:36:05.041Z,100280.25
2023-05-03T17:38:33.554Z,100276.03
2023-05-03T17:41:04.965Z,100289.59
2023-05-03T17:43:32.092Z,100283.91
2023-05-03T17:46:12.607Z,100290.84
2023-05-03T17:48:44.629Z,100285.91
2023-05-03T17:51:15.616Z,100292.53
2023-05-03T17:53:44.257Z,100302.31
2023-05-03T17:56:16.036Z,100302.84
2023-05-03T17:58:45.330Z,100308.91
2023-05-03T18:01:13.400Z,100315.91
2023-05-03T18:03:44.164Z,100318.66
2023-05-03T18:06:13.295Z,100320.31
2023-05-03T18:08:41.444Z,100321.94
2023-05-03T18:11:08.600Z,100326.81
2023-05-03T18:13:37.885Z,100328.16
2023-05-03T18:16:08.311Z,100326.00
2023-05-03T18:18:35.200Z,100333.28
2023-05-03T18:21:04.032Z,100332.78
2023-05-03T18:23:31.831Z,100338.94
2023-05-03T18:25:58.466Z,100351.09
2023-05-03T18:28:25.422Z,100349.50
2023-05-03T18:30:58.120Z,100346.72
2023-05-03T18:33:24.818Z,100359.09
2023-05-03T18:35:52.772Z,100360.50
2023-05-03T18:38:22.654Z,100368.75
2023-05-03T18:40:50.052Z,100370.78
2023-05-03T18:43:18.565Z,100378.97
2023-05-03T18:45:45.279Z,100376.88
2023-05-03T18:48:12.094Z,100398.47
2023-05-03T18:50:39.416Z,100396.72
2023-05-03T18:53:06.633Z,100403.31
2023-05-03T18:55:33.409Z,100414.63
2023-05-03T18:58:00.675Z,100416.41
2023-05-03T19:00:27.475Z,100434.59
2023-05-03T19:02:54.147Z,100448.03
2023-05-03T19:05:21.573Z,100438.88
2023-05-03T19:07:48.863Z,100457.28
2023-05-03T19:10:16.587Z,100456.31
2023-05-03T19:12:44.646Z,100454.00
2023-05-03T19:15:12.206Z,100460.25
2023-05-03T19:17:41.885Z,100457.44
2023-05-03T19:20:10.435Z,100446.84
2023-05-03T19:22:37.303Z,100455.19
2023-05-03T19:25:04.972Z,100460.38
2023-05-03T19:27:33.155Z,100453.06
2023-05-03T19:29:59.895Z,100456.47
2023-05-03T19:32:27.870Z,100462.84
2023-05-03T19:34:54.533Z,100464.13
2023-05-03T19:37:22.300Z,100473.06
2023-05-03T19:39:48.900Z,100467.94
2023-05-03T19:42:15.920Z,100468.47
2023-05-03T19:44:42.631Z,100476.50
2023-05-03T19:47:09.248Z,100474.78
2023-05-03T19:49:35.806Z,100485.41
2023-05-03T19:52:04.600Z,100489.81
2023-05-03T19:54:32.935Z,100482.44
2023-05-03T19:57:08.688Z,100484.81
2023-05-03T19:59:36.697Z,100483.94
2023-05-03T20:02:03.459Z,100489.66
2023-05-03T20:04:30.614Z,100492.91
2023-05-03T20:06:57.868Z,100493.84
2023-05-03T20:09:24.480Z,100495.00
2023-05-03T20:11:56.462Z,100489.19
2023-05-03T20:14:24.189Z,100502.94
2023-05-03T20:16:50.828Z,100510.41
2023-05-03T20:19:17.746Z,100505.06
2023-05-03T20:21:44.793Z,100508.81
2023-05-03T20:24:11.746Z,100516.94
2023-05-03T20:26:38.633Z,100511.91
2023-05-03T20:29:05.665Z,100521.97
2023-05-03T20:31:32.874Z,100515.41
2023-05-03T20:34:00.458Z,100516.38
2023-05-03T20:36:28.044Z,100515.91
2023-05-03T20:38:55.587Z,100524.19
2023-05-03T20:41:22.896Z,100525.31
2023-05-03T20:43:52.491Z,100533.50
2023-05-03T20:46:19.248Z,100531.06
2023-05-03T20:48:47.141Z,100536.13
2023-05-03T20:51:14.819Z,100542.09
2023-05-03T20:53:41.530Z,100546.00
2023-05-03T20:56:08.442Z,100546.09
2023-05-03T20:58:35.270Z,100541.47
2023-05-03T21:01:07.836Z,100540.09
2023-05-03T21:03:35.567Z,100541.06
2023-05-03T21:06:02.896Z,100549.97
2023-05-03T21:08:29.884Z,100556.06
2023-05-03T21:10:56.489Z,100552.94
2023-05-03T21:13:24.489Z,100549.09
2023-05-03T21:15:51.212Z,100549.06
2023-05-03T21:18:19.199Z,100556.50
2023-05-03T21:20:47.034Z,100547.16
2023-05-03T21:23:13.749Z,100552.63
2023-05-03T21:25:40.440Z,100554.69
2023-05-03T21:28:07.099Z,100553.41
2023-05-03T21:30:33.801Z,100552.81
2023-05-03T21:33:00.429Z,100561.00
2023-05-03T21:35:27.207Z,100551.75
2023-05-03T21:37:53.909Z,100556.06
2023-05-03T21:40:23.158Z,100555.59
2023-05-03T21:42:52.366Z,100556.94
2023-05-03T21:45:20.000Z,100556.31
2023-05-03T21:47:46.913Z,100558.56
2023-05-03T21:50:14.068Z,100557.13
2023-05-03T21:52:41.080Z,100551.94
2023-05-03T21:55:08.580Z,100557.34
2023-05-03T21:57:35.242Z,100551.72
2023-05-03T22:00:02.548Z,100562.59
2023-05-03T22:02:29.499Z,100560.38
2023-05-03T22:04:57.158Z,100568.56
2023-05-03T22:07:23.826Z,100570.53
2023-05-03T22:09:50.437Z,100574.66
2023-05-03T22:14:47.397Z,100573.28
2023-05-03T22:17:15.303Z,100578.56
2023-05-03T22:19:42.001Z,100571.63
2023-05-03T22:22:09.009Z,100575.59
2023-05-03T22:24:35.771Z,100567.75
2023-05-03T22:27:02.952Z,100567.91
2023-05-03T22:29:30.951Z,100570.34
2023-05-03T22:31:57.825Z,100577.66
2023-05-03T22:34:24.529Z,100556.88
2023-05-03T22:36:52.545Z,100552.34
2023-05-03T22:39:19.108Z,100560.03
2023-05-03T22:41:45.906Z,100558.47
2023-05-03T22:44:12.652Z,100562.25
2023-05-03T22:46:39.847Z,100561.06
2023-05-03T22:49:07.405Z,100571.44
2023-05-03T22:51:35.499Z,100572.94
2023-05-03T22:54:02.467Z,100585.44
2023-05-03T22:56:30.248Z,100574.53
2023-05-03T22:58:58.305Z,100588.03
2023-05-03T23:01:26.593Z,100595.97
2023-05-03T23:03:54.419Z,100589.59
2023-05-03T23:06:21.208Z,100590.56
2023-05-03T23:08:47.811Z,100592.22
2023-05-03T23:11:15.780Z,100589.34
2023-05-03T23:13:43.580Z,100588.09
2023-05-03T23:16:11.801Z,100590.31
2023-05-03T23:18:38.531Z,100589.34
2023-05-03T23:21:05.603Z,100586.78
2023-05-03T23:23:32.217Z,100588.84
2023-05-03T23:25:58.911Z,100598.78
2023-05-03T23:28:26.203Z,100601.16
2023-05-03T23:30:54.467Z,100602.16
2023-05-03T23:33:21.454Z,100601.25
2023-05-03T23:35:48.839Z,100600.84
2023-05-03T23:38:15.863Z,100607.81
2023-05-03T23:40:42.554Z,100613.25
2023-05-03T23:43:10.308Z,100612.22
2023-05-03T23:45:38.229Z,100610.09
2023-05-03T23:48:06.357Z,100611.84
2023-05-03T23:50:32.987Z,100616.09
2023-05-03T23:53:01.056Z,100625.84
2023-05-03T23:55:27.831Z,100623.78
2023-05-03T23:57:55.765Z,100627.81
